Terminal Aerodrome Forecast
Issued by NWS

Home | Current Version | Previous Version | Text Only | Print | Product List | Glossary Off
Versions: 1 2 3 4 5 6 7 8 9 10 11 12 13 14 15 16 17 18 19 20 21 22 23

005
FTUS45 KGGW 152335 AAB
TAFOLF
TAF AMD
KOLF 152335Z 1600/1624 02007KT P6SM SCT100
     FM161100 VRB03KT P6SM FEW160
     FM162200 14007KT P6SM SCT110=

USA.gov is the U.S. government's official web portal to all federal, state and local government web resources and services.